Time;durP1;ratioP1;P1;durP2;ratioP2;P2;SDS_P1;SDS_P2;PMS_P1;PMS_P2;Temp;Humidity;BMP_temperature;BMP_pressure;BME280_temperature;BME280_humidity;BME280_pressure;Samples;Min_cycle;Max_cycle;Signal;HPM_P1;HPM_P2
2022/12/17 13:06:39;;;;;;;37.57;26.00;;;-0.50;99.90;;;;;;5042285;28;20444;-48
2022/12/17 13:09:24;;;;;;;34.23;23.80;;;-0.50;99.90;;;;;;5043328;28;20434;-48
2022/12/17 13:12:08;;;;;;;38.23;26.20;;;-0.30;99.90;;;;;;5038687;28;20637;-50
2022/12/17 13:14:43;;;;;;;37.80;25.63;;;-0.40;99.90;;;;;;5037438;28;20436;-48
2022/12/17 13:17:33;;;;;;;38.17;25.30;;;-0.40;99.90;;;;;;5041337;28;20559;-47
2022/12/17 13:20:04;;;;;;;36.20;24.03;;;-0.40;99.90;;;;;;5043053;28;20439;-51
2022/12/17 13:22:33;;;;;;;43.53;25.93;;;-0.50;99.90;;;;;;5038977;28;20834;-48
2022/12/17 13:25:16;;;;;;;33.13;22.70;;;-0.50;99.90;;;;;;5040254;28;20865;-48
2022/12/17 13:27:44;;;;;;;34.33;24.80;;;-0.40;99.90;;;;;;5042958;28;20992;-48
2022/12/17 13:30:32;;;;;;;43.07;25.37;;;-0.20;99.90;;;;;;5039855;28;20521;-48
2022/12/17 13:33:23;;;;;;;33.27;22.10;;;0.00;99.90;;;;;;5041353;28;20549;-48
2022/12/17 13:35:59;;;;;;;33.23;23.37;;;-0.50;99.90;;;;;;5037555;28;20468;-48
2022/12/17 13:38:33;;;;;;;34.03;22.37;;;-1.00;99.90;;;;;;5038283;28;20448;-48
2022/12/17 13:41:06;;;;;;;33.90;22.27;;;-0.90;99.90;;;;;;5038552;28;20525;-48
2022/12/17 13:43:39;;;;;;;32.67;22.10;;;-0.60;99.90;;;;;;5038154;28;20956;-48
2022/12/17 13:46:05;;;;;;;37.63;24.53;;;-0.70;99.90;;;;;;5039362;28;20538;-48
2022/12/17 13:48:34;;;;;;;32.50;24.30;;;-0.80;99.90;;;;;;5040221;28;20430;-50
2022/12/17 13:51:04;;;;;;;42.40;26.00;;;-0.60;99.90;;;;;;5045494;28;20462;-48
2022/12/17 13:53:33;;;;;;;33.53;22.53;;;-0.80;99.90;;;;;;5044899;28;20572;-48
2022/12/17 13:56:01;;;;;;;34.47;20.40;;;-1.00;99.90;;;;;;5043263;28;20468;-48
2022/12/17 13:58:29;;;;;;;34.10;20.90;;;-1.10;99.90;;;;;;5040304;28;20454;-50
2022/12/17 14:01:07;;;;;;;28.10;20.33;;;-1.00;99.90;;;;;;5037742;28;20525;-51
2022/12/17 14:03:36;;;;;;;31.77;20.50;;;-1.20;99.90;;;;;;5043455;28;20620;-50
2022/12/17 14:06:04;;;;;;;30.10;22.30;;;-1.00;99.90;;;;;;5039157;28;20553;-49
2022/12/17 14:08:33;;;;;;;37.00;22.87;;;-0.90;99.90;;;;;;5041082;28;20485;-49
2022/12/17 14:13:43;;;;;;;39.83;23.80;;;-1.30;99.90;;;;;;5040671;28;20555;-47
2022/12/17 14:16:14;;;;;;;33.90;24.30;;;-1.40;99.90;;;;;;5045441;28;20537;-48
2022/12/17 14:18:44;;;;;;;42.00;24.50;;;-1.40;99.90;;;;;;5039314;28;20464;-49
2022/12/17 14:21:11;;;;;;;36.40;24.60;;;-1.30;99.90;;;;;;5042383;28;20449;-48
2022/12/17 14:23:40;;;;;;;36.40;24.80;;;-1.20;99.90;;;;;;5042400;28;20474;-48
2022/12/17 14:26:10;;;;;;;39.13;24.77;;;-1.10;99.90;;;;;;5040962;28;20546;-50
2022/12/17 14:28:44;;;;;;;39.33;27.03;;;-1.30;99.90;;;;;;5039661;28;20549;-48
2022/12/17 14:31:20;;;;;;;36.63;24.00;;;-1.00;99.90;;;;;;5039991;28;20430;-49
2022/12/17 14:34:00;;;;;;;33.60;23.70;;;-1.20;99.90;;;;;;5042318;28;20564;-48
2022/12/17 14:36:29;;;;;;;36.33;23.87;;;-1.40;99.90;;;;;;5046614;28;20469;-48
2022/12/17 14:38:58;;;;;;;34.13;22.80;;;-1.40;99.90;;;;;;5038542;28;20443;-48
2022/12/17 14:44:19;;;;;;;37.93;24.70;;;-1.50;99.90;;;;;;5038623;28;20437;-48
2022/12/17 14:46:46;;;;;;;37.13;25.37;;;-1.30;99.90;;;;;;5036688;28;20446;-49
2022/12/17 14:49:17;;;;;;;35.30;24.77;;;-1.30;99.90;;;;;;5040466;28;20840;-48
2022/12/17 14:51:45;;;;;;;35.33;24.17;;;-1.50;99.90;;;;;;5039472;28;20453;-48
2022/12/17 14:54:20;;;;;;;37.80;24.87;;;-1.60;99.90;;;;;;5040008;28;20515;-49
2022/12/17 14:56:49;;;;;;;37.37;26.27;;;-1.20;99.90;;;;;;5042788;28;20457;-49
2022/12/17 14:59:24;;;;;;;39.33;26.07;;;-1.60;99.90;;;;;;5040559;28;20437;-48
2022/12/17 15:01:51;;;;;;;40.43;25.43;;;-1.70;99.90;;;;;;5039234;28;20446;-48
2022/12/17 15:04:20;;;;;;;35.47;23.13;;;-1.70;99.90;;;;;;5043448;28;20442;-48
2022/12/17 15:06:48;;;;;;;36.30;24.57;;;-1.80;99.90;;;;;;5043352;28;20548;-48
2022/12/17 15:09:15;;;;;;;39.33;26.43;;;-1.80;99.90;;;;;;5049830;28;20442;-48
2022/12/17 15:11:42;;;;;;;46.40;26.83;;;-1.80;99.90;;;;;;5050308;28;21020;-50
2022/12/17 15:14:09;;;;;;;41.73;26.90;;;-1.60;99.90;;;;;;5047718;28;20547;-46
2022/12/17 15:16:36;;;;;;;37.53;25.60;;;-1.40;99.90;;;;;;5050820;28;20541;-48
2022/12/17 15:19:03;;;;;;;41.63;25.90;;;-1.40;99.90;;;;;;5054148;28;20443;-51
2022/12/17 15:21:31;;;;;;;40.33;25.60;;;-1.40;99.90;;;;;;5046241;28;20951;-50
2022/12/17 15:23:58;;;;;;;38.10;25.47;;;-1.40;99.90;;;;;;5050024;28;20438;-48
2022/12/17 15:26:25;;;;;;;39.23;26.93;;;-1.40;99.90;;;;;;5053732;28;20461;-51
2022/12/17 15:28:52;;;;;;;40.23;25.87;;;-1.50;99.90;;;;;;5047086;28;20561;-48
2022/12/17 15:31:19;;;;;;;33.70;25.20;;;-1.30;99.90;;;;;;5053018;28;20966;-49
2022/12/17 15:33:46;;;;;;;33.97;23.80;;;-1.20;99.90;;;;;;5052771;28;20556;-49
2022/12/17 15:36:13;;;;;;;30.97;22.77;;;-1.30;99.90;;;;;;5053963;28;20477;-47
2022/12/17 15:38:41;;;;;;;36.57;23.63;;;-1.30;99.90;;;;;;5053466;28;20471;-48
2022/12/17 15:43:53;;;;;;;43.90;29.20;;;-1.40;99.90;;;;;;5053359;28;20445;-49
2022/12/17 15:46:20;;;;;;;45.93;30.10;;;-1.40;99.90;;;;;;5053338;28;20549;-48
2022/12/17 15:48:46;;;;;;;36.57;25.63;;;-1.50;99.90;;;;;;5050323;28;20499;-51
2022/12/17 15:51:13;;;;;;;42.23;28.23;;;-1.60;99.90;;;;;;5052512;28;20444;-48
2022/12/17 15:53:41;;;;;;;41.20;27.17;;;-2.00;99.90;;;;;;5050996;28;20568;-48
2022/12/17 15:56:18;;;;;;;38.50;24.90;;;-2.10;99.90;;;;;;5046968;28;20552;-48
2022/12/17 15:58:45;;;;;;;36.03;25.33;;;-2.00;99.90;;;;;;5048612;28;20528;-49
2022/12/17 16:01:12;;;;;;;34.80;22.20;;;-1.70;99.90;;;;;;5052365;28;20961;-48
2022/12/17 16:03:39;;;;;;;38.50;23.27;;;-1.60;99.90;;;;;;5052135;28;20463;-48
2022/12/17 16:06:06;;;;;;;38.60;25.10;;;-1.40;99.90;;;;;;5040851;28;20972;-48
2022/12/17 16:08:33;;;;;;;38.53;25.37;;;-1.30;99.90;;;;;;5053697;28;20477;-48
2022/12/17 16:11:06;;;;;;;36.03;24.77;;;-1.30;99.90;;;;;;5044716;28;20530;-48
2022/12/17 16:13:33;;;;;;;32.17;23.60;;;-1.30;99.90;;;;;;5043368;28;20477;-48
2022/12/17 16:16:00;;;;;;;32.73;23.23;;;-1.30;99.90;;;;;;5048291;28;20523;-49
2022/12/17 16:18:27;;;;;;;39.70;21.77;;;-1.40;99.90;;;;;;5052939;28;20438;-49
2022/12/17 16:20:54;;;;;;;31.50;21.10;;;-1.50;99.90;;;;;;5052354;28;20491;-48
2022/12/17 16:23:21;;;;;;;29.10;20.63;;;-1.30;99.90;;;;;;5052917;28;20794;-50
2022/12/17 16:25:56;;;;;;;25.83;17.77;;;-1.60;99.90;;;;;;5052031;28;20545;-47
2022/12/17 16:28:24;;;;;;;24.07;16.30;;;-1.80;99.90;;;;;;5046025;28;20473;-48
2022/12/17 16:30:58;;;;;;;23.23;16.77;;;-1.90;99.90;;;;;;5051097;28;21116;-45
2022/12/17 16:33:25;;;;;;;23.57;15.27;;;-2.00;99.90;;;;;;5044077;28;20504;-50
2022/12/17 16:35:53;;;;;;;24.13;16.30;;;-2.00;99.90;;;;;;5053039;28;20973;-47
2022/12/17 16:38:20;;;;;;;19.00;14.40;;;-1.80;99.90;;;;;;5054113;28;20476;-50
2022/12/17 16:40:48;;;;;;;18.27;13.60;;;-1.90;99.90;;;;;;5050129;28;20496;-48
2022/12/17 16:43:15;;;;;;;19.23;13.40;;;-2.00;99.90;;;;;;5053332;28;20529;-46
2022/12/17 16:45:50;;;;;;;20.20;14.93;;;-2.40;99.90;;;;;;5055041;28;20872;-49
2022/12/17 16:48:18;;;;;;;24.97;17.67;;;-2.60;99.90;;;;;;5054663;28;20451;-49
2022/12/17 16:50:45;;;;;;;31.10;18.40;;;-2.70;99.90;;;;;;5054337;28;20445;-47
2022/12/17 16:53:13;;;;;;;35.40;23.37;;;-2.60;99.90;;;;;;5043343;28;21044;-48
2022/12/17 16:55:41;;;;;;;25.17;18.50;;;-2.60;99.90;;;;;;5046404;28;21012;-48
2022/12/17 16:58:08;;;;;;;29.73;19.13;;;-2.60;99.90;;;;;;5050087;28;20444;-49
2022/12/17 17:00:35;;;;;;;28.40;20.27;;;-2.90;99.90;;;;;;5048688;28;20558;-49
2022/12/17 17:03:04;;;;;;;54.27;41.40;;;-2.90;99.90;;;;;;5048596;28;20535;-48
2022/12/17 17:05:32;;;;;;;29.20;22.37;;;-2.80;99.90;;;;;;5049412;28;20624;-48
2022/12/17 17:07:59;;;;;;;26.90;20.07;;;-3.10;99.90;;;;;;5051376;28;20460;-48
2022/12/17 17:10:26;;;;;;;42.20;32.97;;;-3.10;99.90;;;;;;5050237;28;20453;-48
2022/12/17 17:12:53;;;;;;;34.40;24.97;;;-3.10;99.90;;;;;;5039307;28;20525;-49
2022/12/17 17:15:21;;;;;;;22.40;20.00;;;-3.10;99.90;;;;;;5041278;28;20821;-48
2022/12/17 17:17:48;;;;;;;30.13;21.63;;;-3.20;99.90;;;;;;5047147;28;20448;-48
2022/12/17 17:20:17;;;;;;;23.03;17.17;;;-3.10;99.90;;;;;;5052869;28;20471;-48
2022/12/17 17:22:43;;;;;;;22.37;15.43;;;-3.20;99.90;;;;;;5052777;28;20828;-47
2022/12/17 17:25:11;;;;;;;18.40;12.97;;;-2.90;99.90;;;;;;5052235;28;21023;-49
2022/12/17 17:27:38;;;;;;;17.10;12.77;;;-2.80;99.90;;;;;;5049635;28;20448;-48
2022/12/17 17:30:05;;;;;;;17.37;12.40;;;-3.00;99.90;;;;;;5045672;28;20520;-47
2022/12/17 17:32:32;;;;;;;21.50;13.70;;;-3.00;99.90;;;;;;5045030;28;20433;-47
2022/12/17 17:34:59;;;;;;;16.17;11.07;;;-3.00;99.90;;;;;;5042252;28;20559;-48
2022/12/17 17:37:27;;;;;;;16.80;11.27;;;-2.90;99.90;;;;;;5040925;28;21037;-48
2022/12/17 17:39:54;;;;;;;17.00;12.30;;;-2.90;99.90;;;;;;5041070;28;20501;-48
2022/12/17 17:42:21;;;;;;;15.50;12.00;;;-3.30;99.90;;;;;;5044469;28;20518;-48
2022/12/17 17:44:48;;;;;;;13.67;11.87;;;-3.30;99.90;;;;;;5043412;28;20509;-47
2022/12/17 17:47:15;;;;;;;11.87;9.40;;;-3.20;99.90;;;;;;5049298;28;20448;-48
2022/12/17 17:49:42;;;;;;;12.57;9.03;;;-3.30;99.90;;;;;;5049463;28;20524;-50
2022/12/17 17:52:09;;;;;;;14.50;10.20;;;-3.30;99.90;;;;;;5049976;28;20531;-48
2022/12/17 17:54:38;;;;;;;14.67;10.67;;;-3.20;99.90;;;;;;5049971;28;20946;-46
2022/12/17 17:57:05;;;;;;;12.83;9.60;;;-3.50;99.90;;;;;;5052390;28;20444;-50
2022/12/17 17:59:32;;;;;;;15.03;9.67;;;-3.60;99.90;;;;;;5050883;28;20441;-47
2022/12/17 18:01:59;;;;;;;11.83;8.20;;;-3.50;99.90;;;;;;5050465;28;20448;-47
2022/12/17 18:04:26;;;;;;;12.47;8.20;;;-3.70;99.90;;;;;;5051286;28;20469;-47
2022/12/17 18:06:52;;;;;;;9.50;6.60;;;-3.50;99.90;;;;;;5048490;28;20535;-48
2022/12/17 18:09:19;;;;;;;12.50;8.10;;;-3.70;99.90;;;;;;5049749;28;20494;-49
2022/12/17 18:11:48;;;;;;;15.17;9.17;;;-3.80;99.90;;;;;;5049234;28;21011;-48
2022/12/17 18:14:14;;;;;;;13.60;9.43;;;-3.20;99.90;;;;;;5036603;28;20474;-47
2022/12/17 18:16:42;;;;;;;12.00;9.80;;;-3.00;99.90;;;;;;5048620;28;20482;-47
2022/12/17 18:19:12;;;;;;;11.47;8.37;;;-3.00;99.90;;;;;;5049025;28;20546;-48
2022/12/17 18:21:39;;;;;;;12.50;8.00;;;-3.20;99.90;;;;;;5050661;28;20435;-47
2022/12/17 18:24:11;;;;;;;13.47;8.93;;;-3.50;99.90;;;;;;5049830;28;20444;-49
2022/12/17 18:26:41;;;;;;;12.83;8.33;;;-3.30;99.90;;;;;;5050701;28;20470;-47
2022/12/17 18:29:10;;;;;;;8.87;6.60;;;-3.50;99.90;;;;;;5044671;28;20506;-47
2022/12/17 18:31:37;;;;;;;9.20;5.67;;;-3.60;99.90;;;;;;5041845;28;20457;-47
2022/12/17 18:34:06;;;;;;;5.33;4.40;;;-3.60;99.90;;;;;;5044955;28;20507;-47
2022/12/17 18:36:36;;;;;;;6.07;4.13;;;-3.70;99.90;;;;;;5048382;28;20977;-47
2022/12/17 18:39:05;;;;;;;6.83;4.57;;;-3.90;99.90;;;;;;5049128;28;20535;-47
2022/12/17 18:44:19;;;;;;;11.40;9.20;;;-3.20;99.90;;;;;;5048198;28;20514;-47
2022/12/17 18:46:46;;;;;;;12.23;7.93;;;-3.00;99.90;;;;;;5047719;28;20554;-49
2022/12/17 18:49:15;;;;;;;10.23;6.50;;;-2.90;99.90;;;;;;5049009;28;21015;-45
2022/12/17 18:51:44;;;;;;;7.97;5.53;;;-3.70;99.90;;;;;;5050626;28;20528;-49
2022/12/17 18:54:14;;;;;;;8.10;5.50;;;-3.90;99.90;;;;;;5053088;28;20472;-47
2022/12/17 18:56:41;;;;;;;4.03;3.30;;;-4.50;99.90;;;;;;5053386;28;20499;-47
2022/12/17 18:59:08;;;;;;;5.93;4.03;;;-4.60;99.90;;;;;;5053907;28;20477;-47
2022/12/17 19:01:37;;;;;;;8.30;5.13;;;-4.50;99.90;;;;;;5053891;28;20201;-47
2022/12/17 19:04:06;;;;;;;4.90;4.40;;;-4.10;99.90;;;;;;5053381;28;20995;-47
2022/12/17 19:06:35;;;;;;;7.93;6.10;;;-4.20;99.90;;;;;;5053810;28;20805;-50
2022/12/17 19:09:03;;;;;;;9.30;6.30;;;-4.10;99.90;;;;;;5053971;28;20443;-46
2022/12/17 19:11:34;;;;;;;5.53;4.67;;;-4.00;99.90;;;;;;5054043;28;20816;-47
2022/12/17 19:14:01;;;;;;;11.20;7.30;;;-4.00;99.90;;;;;;5053377;28;21014;-47
2022/12/17 19:16:29;;;;;;;14.30;8.40;;;-4.40;99.90;;;;;;5054777;28;20572;-47
2022/12/17 19:19:01;;;;;;;10.50;8.07;;;-4.40;99.90;;;;;;5053767;28;20301;-50
2022/12/17 19:21:28;;;;;;;13.53;8.80;;;-4.30;99.90;;;;;;5054326;28;20216;-47
2022/12/17 19:23:57;;;;;;;16.90;8.03;;;-4.10;99.90;;;;;;5053669;28;20449;-47
2022/12/17 19:26:25;;;;;;;8.50;7.38;;;-3.80;99.90;;;;;;5054230;28;20461;-47
2022/12/17 19:28:53;;;;;;;7.53;5.83;;;-3.60;99.90;;;;;;5054314;28;20620;-49
2022/12/17 19:31:22;;;;;;;10.50;7.13;;;-3.50;99.90;;;;;;5053994;28;20474;-47
2022/12/17 19:33:53;;;;;;;11.25;6.85;;;-3.60;99.90;;;;;;5053489;28;20525;-49
2022/12/17 19:36:22;;;;;;;10.50;7.60;;;-3.30;99.90;;;;;;5053739;28;20228;-47
2022/12/17 19:38:52;;;;;;;8.80;7.03;;;-3.10;99.90;;;;;;5053795;28;20880;-47
2022/12/17 19:41:19;;;;;;;7.07;6.33;;;-3.40;99.90;;;;;;5053587;28;20946;-47
2022/12/17 19:43:47;;;;;;;8.30;6.13;;;-3.90;99.90;;;;;;5053625;28;20443;-46
2022/12/17 19:46:17;;;;;;;9.50;7.10;;;-4.60;99.90;;;;;;5053501;28;20468;-47
2022/12/17 19:48:46;;;;;;;10.70;5.73;;;-4.60;99.90;;;;;;5053870;28;21024;-47
2022/12/17 19:51:14;;;;;;;6.17;5.40;;;-4.50;99.90;;;;;;5054860;28;20541;-47
2022/12/17 19:53:45;;;;;;;11.93;6.17;;;-4.60;99.90;;;;;;5052140;28;20480;-47
2022/12/17 19:56:14;;;;;;;11.10;6.43;;;-4.40;99.90;;;;;;5052769;28;20911;-47
2022/12/17 19:58:41;;;;;;;15.87;6.67;;;-4.50;99.90;;;;;;5052437;28;20964;-48
2022/12/17 20:01:09;;;;;;;8.97;6.73;;;-4.60;99.90;;;;;;5052596;28;20451;-48
2022/12/17 20:03:37;;;;;;;9.60;7.70;;;-4.70;99.90;;;;;;5051940;28;20536;-47
2022/12/17 20:06:05;;;;;;;11.53;6.63;;;-4.50;99.90;;;;;;5052157;28;20464;-47
2022/12/17 20:08:33;;;;;;;8.23;6.10;;;-4.60;99.90;;;;;;5052378;28;20478;-47
2022/12/17 20:11:02;;;;;;;7.67;5.80;;;-4.40;99.90;;;;;;5052022;28;20934;-48
2022/12/17 20:13:30;;;;;;;7.73;5.30;;;-4.00;99.90;;;;;;5051628;28;20518;-47
2022/12/17 20:16:01;;;;;;;8.17;5.77;;;-3.60;99.90;;;;;;5052090;28;20569;-47
2022/12/17 20:18:27;;;;;;;8.50;5.60;;;-3.60;99.90;;;;;;5052141;28;20480;-49
2022/12/17 20:21:01;;;;;;;6.77;5.50;;;-3.60;99.90;;;;;;5052015;28;20438;-47
2022/12/17 20:23:28;;;;;;;7.73;4.20;;;-3.70;99.90;;;;;;5051717;28;20467;-47
2022/12/17 20:26:03;;;;;;;3.97;3.40;;;-4.10;99.90;;;;;;5051856;28;20497;-48
2022/12/17 20:28:30;;;;;;;5.33;4.27;;;-4.20;99.90;;;;;;5051740;28;20874;-49
2022/12/17 20:30:57;;;;;;;5.65;3.85;;;-4.40;99.90;;;;;;5051634;28;20436;-47
2022/12/17 20:33:24;;;;;;;4.97;4.10;;;-4.50;99.90;;;;;;5051422;28;20292;-47
2022/12/17 20:35:52;;;;;;;7.00;4.50;;;-4.40;99.90;;;;;;5052965;28;20488;-47
2022/12/17 20:38:19;;;;;;;5.07;4.07;;;-4.20;99.90;;;;;;5051693;28;20452;-46
2022/12/17 20:40:45;;;;;;;9.27;6.20;;;-4.50;99.90;;;;;;5051910;28;20444;-47
2022/12/17 20:43:14;;;;;;;7.20;5.23;;;-4.50;99.90;;;;;;5050840;28;20525;-47
2022/12/17 20:45:47;;;;;;;7.47;5.63;;;-4.60;99.90;;;;;;5051331;28;21038;-47
2022/12/17 20:48:14;;;;;;;8.18;4.80;;;-4.80;99.90;;;;;;5051191;28;20969;-46
2022/12/17 20:50:41;;;;;;;7.32;5.63;;;-5.00;99.90;;;;;;5051844;28;20283;-47
2022/12/17 20:53:08;;;;;;;6.77;4.90;;;-4.90;99.90;;;;;;5051120;28;20295;-48
2022/12/17 20:55:35;;;;;;;7.90;5.07;;;-4.40;99.90;;;;;;5051048;28;21003;-47
2022/12/17 20:58:02;;;;;;;5.40;3.80;;;-4.20;99.90;;;;;;5051374;28;20537;-47
2022/12/17 21:00:30;;;;;;;8.00;3.67;;;-4.70;99.90;;;;;;5050945;28;20962;-48
2022/12/17 21:02:57;;;;;;;7.70;4.63;;;-5.00;99.90;;;;;;5051679;28;20537;-46
2022/12/17 21:05:24;;;;;;;8.27;4.90;;;-5.10;99.90;;;;;;5051343;28;20872;-47
2022/12/17 21:07:51;;;;;;;4.80;4.03;;;-4.80;99.90;;;;;;5051334;28;20529;-49
2022/12/17 21:10:18;;;;;;;6.73;4.53;;;-5.00;99.90;;;;;;5051480;28;20199;-49
2022/12/17 21:15:31;;;;;;;6.57;4.30;;;-5.50;99.90;;;;;;5049870;28;20221;-48
2022/12/17 21:17:58;;;;;;;5.10;3.25;;;-5.50;99.90;;;;;;5051257;28;20286;-47
2022/12/17 21:20:25;;;;;;;4.50;3.90;;;-5.40;99.90;;;;;;5050803;28;20231;-49
2022/12/17 21:22:52;;;;;;;5.13;3.60;;;-5.20;99.90;;;;;;5050751;28;20205;-46
2022/12/17 21:25:19;;;;;;;5.43;3.65;;;-5.10;99.90;;;;;;5051225;28;20219;-47
2022/12/17 21:27:45;;;;;;;6.25;4.57;;;-5.20;99.90;;;;;;5050809;28;20286;-47
2022/12/17 21:30:15;;;;;;;7.00;4.43;;;-4.70;99.90;;;;;;5050662;28;20295;-47
2022/12/17 21:32:44;;;;;;;6.28;5.20;;;-4.70;99.90;;;;;;5050735;28;20226;-48
2022/12/17 21:35:11;;;;;;;5.22;3.95;;;-4.70;99.90;;;;;;5050234;28;20278;-48
2022/12/17 21:37:38;;;;;;;4.60;3.80;;;-4.80;99.90;;;;;;5050097;28;20634;-46
2022/12/17 21:40:06;;;;;;;5.15;3.15;;;-5.30;99.90;;;;;;5049736;28;20454;-48
2022/12/17 21:45:17;;;;;;;2.75;2.10;;;-5.40;99.90;;;;;;5049746;28;20218;-47
2022/12/17 21:47:45;;;;;;;2.95;2.22;;;-5.40;99.90;;;;;;5049660;28;20203;-48
2022/12/17 21:50:12;;;;;;;5.95;3.90;;;-5.40;99.90;;;;;;5049457;28;20206;-50
2022/12/17 21:52:39;;;;;;;8.80;4.97;;;-5.40;99.90;;;;;;5049736;28;20491;-47
2022/12/17 21:55:06;;;;;;;4.30;3.17;;;-5.60;99.90;;;;;;5049310;28;20223;-49
2022/12/17 21:57:33;;;;;;;4.25;2.75;;;-5.80;99.90;;;;;;5048305;28;20274;-47
2022/12/17 22:00:00;;;;;;;3.50;2.45;;;-5.50;99.90;;;;;;5049869;28;20294;-47
2022/12/17 22:02:27;;;;;;;5.47;3.38;;;-5.50;99.90;;;;;;5049484;28;20227;-46
2022/12/17 22:04:55;;;;;;;4.00;3.08;;;-5.40;99.90;;;;;;5048882;28;20306;-48
2022/12/17 22:07:22;;;;;;;3.47;2.60;;;-5.20;99.90;;;;;;5049543;28;20290;-47
2022/12/17 22:09:48;;;;;;;5.47;3.20;;;-5.10;99.90;;;;;;5049358;28;20203;-47
2022/12/17 22:14:59;;;;;;;3.28;2.10;;;-5.10;99.90;;;;;;5048663;28;20233;-47
2022/12/17 22:17:26;;;;;;;2.78;2.00;;;-5.10;99.90;;;;;;5049282;28;20645;-49
2022/12/17 22:19:54;;;;;;;4.07;2.60;;;-5.20;99.90;;;;;;5049593;28;20284;-47
2022/12/17 22:22:21;;;;;;;2.65;2.45;;;-5.60;99.90;;;;;;5050632;28;20199;-47
2022/12/17 22:24:48;;;;;;;2.90;2.20;;;-5.80;99.90;;;;;;5049741;28;20251;-48
2022/12/17 22:27:15;;;;;;;3.17;2.45;;;-6.00;99.90;;;;;;5049969;28;20735;-47
2022/12/17 22:35:12;;;;;;;2.60;2.30;;;-5.40;99.90;;;;;;5013549;28;1116736;-50
2022/12/17 22:37:39;;;;;;;4.47;2.70;;;-5.40;99.90;;;;;;5046943;28;20195;-48
2022/12/17 22:40:07;;;;;;;2.88;2.53;;;-5.30;99.90;;;;;;5044747;28;20443;-48
2022/12/17 22:45:20;;;;;;;4.35;3.72;;;-5.30;99.90;;;;;;5024190;28;20441;-47
2022/12/17 22:47:47;;;;;;;7.30;5.60;;;-5.00;99.90;;;;;;5051803;28;20290;-47
2022/12/17 22:50:15;;;;;;;8.30;5.40;;;-5.10;99.90;;;;;;5052508;28;20942;-47
2022/12/17 22:52:42;;;;;;;11.90;6.72;;;-5.70;99.90;;;;;;5052807;28;20517;-48
2022/12/17 22:55:09;;;;;;;4.80;4.28;;;-5.60;99.90;;;;;;5051506;28;20227;-46
2022/12/17 22:57:36;;;;;;;4.18;3.65;;;-5.50;99.90;;;;;;5051103;28;20191;-49
2022/12/17 23:00:06;;;;;;;3.05;1.95;;;-5.80;99.90;;;;;;5051435;28;20205;-47
2022/12/17 23:02:33;;;;;;;2.92;2.30;;;-5.40;99.90;;;;;;5052031;28;20665;-49
2022/12/17 23:04:59;;;;;;;2.90;2.35;;;-5.60;99.90;;;;;;5050952;28;20521;-48
2022/12/17 23:07:28;;;;;;;3.30;2.10;;;-5.70;99.90;;;;;;5049016;28;20205;-46
2022/12/17 23:09:55;;;;;;;2.20;2.00;;;-5.60;99.90;;;;;;5032955;28;20692;-48
2022/12/17 23:15:07;;;;;;;2.25;2.05;;;-5.40;99.90;;;;;;5052772;28;20591;-47
2022/12/17 23:17:34;;;;;;;2.90;1.60;;;-6.10;99.90;;;;;;5052895;28;20607;-48
2022/12/17 23:20:00;;;;;;;1.77;1.60;;;-5.80;99.90;;;;;;5053249;28;20217;-48
2022/12/17 23:22:29;;;;;;;2.90;2.20;;;-5.70;99.90;;;;;;5053397;28;20304;-51
2022/12/17 23:24:56;;;;;;;3.35;2.30;;;-5.60;99.90;;;;;;5052678;28;20733;-48
2022/12/17 23:27:23;;;;;;;3.50;1.97;;;-5.70;99.90;;;;;;5053618;28;20592;-46
2022/12/17 23:29:50;;;;;;;2.43;1.40;;;-5.70;99.90;;;;;;5052645;28;20525;-46
2022/12/17 23:32:16;;;;;;;3.03;2.25;;;-6.00;99.90;;;;;;5051789;28;20484;-47
2022/12/17 23:34:43;;;;;;;2.60;2.40;;;-6.00;99.90;;;;;;5045998;28;20680;-45
2022/12/17 23:37:10;;;;;;;4.07;2.83;;;-5.90;99.90;;;;;;5048834;28;20488;-48
2022/12/17 23:39:38;;;;;;;2.88;2.53;;;-5.60;99.90;;;;;;5052183;28;20286;-46
2022/12/17 23:42:05;;;;;;;2.63;2.42;;;-5.80;99.90;;;;;;5048347;28;20205;-47
2022/12/17 23:44:32;;;;;;;2.35;1.58;;;-5.50;99.90;;;;;;5052050;28;20198;-47
2022/12/17 23:46:59;;;;;;;2.00;1.77;;;-5.20;99.90;;;;;;5046474;28;20291;-46
2022/12/17 23:49:26;;;;;;;4.43;1.73;;;-5.20;99.90;;;;;;5043384;28;20278;-49
2022/12/17 23:51:53;;;;;;;2.35;1.80;;;-5.00;99.90;;;;;;5047280;28;20200;-50
2022/12/17 23:54:19;;;;;;;3.05;2.30;;;-5.00;99.90;;;;;;5050235;28;20247;-49
2022/12/17 23:56:48;;;;;;;2.63;1.60;;;-5.20;99.90;;;;;;5045594;28;20221;-47
2022/12/17 23:59:14;;;;;;;2.70;1.80;;;-5.30;99.90;;;;;;5052262;28;20452;-47
